sensor_id;sensor_type;location;lat;lon;timestamp;P1;durP1;ratioP1;P2;durP2;ratioP2
77722;SDS011;67811;42.656;23.394;2023-03-18T00:02:29;2.33;;;2.22;;
77722;SDS011;67811;42.656;23.394;2023-03-18T00:05:01;3.03;;;2.78;;
77722;SDS011;67811;42.656;23.394;2023-03-18T00:07:32;2.95;;;2.67;;
77722;SDS011;67811;42.656;23.394;2023-03-18T00:10:03;4.57;;;3.13;;
77722;SDS011;67811;42.656;23.394;2023-03-18T00:12:35;4.35;;;3.65;;
77722;SDS011;67811;42.656;23.394;2023-03-18T00:15:07;5.97;;;2.78;;
77722;SDS011;67811;42.656;23.394;2023-03-18T00:17:39;3.75;;;2.25;;
77722;SDS011;67811;42.656;23.394;2023-03-18T00:20:11;4.75;;;2.75;;
77722;SDS011;67811;42.656;23.394;2023-03-18T00:22:43;7.82;;;3.47;;
77722;SDS011;67811;42.656;23.394;2023-03-18T00:25:14;7.80;;;2.47;;
77722;SDS011;67811;42.656;23.394;2023-03-18T00:27:44;4.30;;;2.60;;
77722;SDS011;67811;42.656;23.394;2023-03-18T00:30:15;3.58;;;2.13;;
77722;SDS011;67811;42.656;23.394;2023-03-18T00:32:46;2.30;;;2.17;;
77722;SDS011;67811;42.656;23.394;2023-03-18T00:35:18;1.52;;;1.42;;
77722;SDS011;67811;42.656;23.394;2023-03-18T00:37:48;2.38;;;2.22;;
77722;SDS011;67811;42.656;23.394;2023-03-18T00:40:19;1.70;;;1.60;;
77722;SDS011;67811;42.656;23.394;2023-03-18T00:42:50;1.80;;;1.70;;
77722;SDS011;67811;42.656;23.394;2023-03-18T00:45:21;4.55;;;1.75;;
77722;SDS011;67811;42.656;23.394;2023-03-18T00:47:51;1.58;;;1.48;;
77722;SDS011;67811;42.656;23.394;2023-03-18T00:50:23;3.35;;;1.77;;
77722;SDS011;67811;42.656;23.394;2023-03-18T00:52:54;0.93;;;0.93;;
77722;SDS011;67811;42.656;23.394;2023-03-18T00:55:25;1.20;;;1.20;;
77722;SDS011;67811;42.656;23.394;2023-03-18T00:57:56;1.73;;;1.63;;
77722;SDS011;67811;42.656;23.394;2023-03-18T01:00:26;1.05;;;1.02;;
77722;SDS011;67811;42.656;23.394;2023-03-18T01:02:57;2.88;;;2.67;;
77722;SDS011;67811;42.656;23.394;2023-03-18T01:05:29;1.85;;;1.75;;
77722;SDS011;67811;42.656;23.394;2023-03-18T01:08:00;3.05;;;2.75;;
77722;SDS011;67811;42.656;23.394;2023-03-18T01:10:31;2.53;;;1.73;;
77722;SDS011;67811;42.656;23.394;2023-03-18T01:13:01;2.97;;;2.13;;
77722;SDS011;67811;42.656;23.394;2023-03-18T01:15:32;1.75;;;1.63;;
77722;SDS011;67811;42.656;23.394;2023-03-18T01:18:03;1.15;;;1.10;;
77722;SDS011;67811;42.656;23.394;2023-03-18T01:20:35;1.08;;;1.08;;
77722;SDS011;67811;42.656;23.394;2023-03-18T01:23:06;2.47;;;2.28;;
77722;SDS011;67811;42.656;23.394;2023-03-18T01:25:36;3.58;;;1.85;;
77722;SDS011;67811;42.656;23.394;2023-03-18T01:28:07;2.00;;;1.42;;
77722;SDS011;67811;42.656;23.394;2023-03-18T01:30:38;2.35;;;2.20;;
77722;SDS011;67811;42.656;23.394;2023-03-18T01:33:09;4.25;;;2.13;;
77722;SDS011;67811;42.656;23.394;2023-03-18T01:35:41;2.13;;;2.03;;
77722;SDS011;67811;42.656;23.394;2023-03-18T01:38:11;1.23;;;1.13;;
77722;SDS011;67811;42.656;23.394;2023-03-18T01:40:42;1.58;;;1.50;;
77722;SDS011;67811;42.656;23.394;2023-03-18T01:43:16;3.05;;;1.73;;
77722;SDS011;67811;42.656;23.394;2023-03-18T01:45:48;2.20;;;1.77;;
77722;SDS011;67811;42.656;23.394;2023-03-18T01:48:21;1.67;;;1.48;;
77722;SDS011;67811;42.656;23.394;2023-03-18T01:50:56;1.75;;;1.58;;
77722;SDS011;67811;42.656;23.394;2023-03-18T01:53:30;1.25;;;1.25;;
77722;SDS011;67811;42.656;23.394;2023-03-18T01:56:05;1.08;;;1.08;;
77722;SDS011;67811;42.656;23.394;2023-03-18T01:58:37;2.25;;;1.98;;
77722;SDS011;67811;42.656;23.394;2023-03-18T02:01:13;1.70;;;1.65;;
77722;SDS011;67811;42.656;23.394;2023-03-18T02:03:48;1.27;;;1.27;;
77722;SDS011;67811;42.656;23.394;2023-03-18T02:06:21;3.50;;;1.67;;
77722;SDS011;67811;42.656;23.394;2023-03-18T02:08:53;0.38;;;0.38;;
77722;SDS011;67811;42.656;23.394;2023-03-18T02:11:24;0.80;;;0.80;;
77722;SDS011;67811;42.656;23.394;2023-03-18T02:13:55;2.17;;;1.40;;
77722;SDS011;67811;42.656;23.394;2023-03-18T02:16:26;1.58;;;1.58;;
77722;SDS011;67811;42.656;23.394;2023-03-18T02:19:00;0.88;;;0.88;;
77722;SDS011;67811;42.656;23.394;2023-03-18T02:21:41;2.05;;;1.52;;
77722;SDS011;67811;42.656;23.394;2023-03-18T02:24:23;2.25;;;1.15;;
77722;SDS011;67811;42.656;23.394;2023-03-18T02:27:02;1.33;;;1.23;;
77722;SDS011;67811;42.656;23.394;2023-03-18T02:29:42;1.25;;;1.25;;
77722;SDS011;67811;42.656;23.394;2023-03-18T02:32:14;1.58;;;1.48;;
77722;SDS011;67811;42.656;23.394;2023-03-18T02:34:46;1.70;;;1.60;;
77722;SDS011;67811;42.656;23.394;2023-03-18T02:37:18;2.03;;;1.92;;
77722;SDS011;67811;42.656;23.394;2023-03-18T02:39:48;2.08;;;1.95;;
77722;SDS011;67811;42.656;23.394;2023-03-18T02:42:27;1.85;;;1.80;;
77722;SDS011;67811;42.656;23.394;2023-03-18T02:44:58;0.70;;;0.70;;
77722;SDS011;67811;42.656;23.394;2023-03-18T02:47:29;6.40;;;1.55;;
77722;SDS011;67811;42.656;23.394;2023-03-18T02:50:00;2.95;;;2.53;;
77722;SDS011;67811;42.656;23.394;2023-03-18T02:52:30;2.50;;;1.98;;
77722;SDS011;67811;42.656;23.394;2023-03-18T02:55:01;2.42;;;2.22;;
77722;SDS011;67811;42.656;23.394;2023-03-18T02:57:33;2.72;;;2.53;;
77722;SDS011;67811;42.656;23.394;2023-03-18T03:00:04;1.60;;;1.55;;
77722;SDS011;67811;42.656;23.394;2023-03-18T03:02:36;3.95;;;2.97;;
77722;SDS011;67811;42.656;23.394;2023-03-18T03:05:06;0.88;;;0.88;;
77722;SDS011;67811;42.656;23.394;2023-03-18T03:07:37;2.10;;;1.63;;
77722;SDS011;67811;42.656;23.394;2023-03-18T03:10:09;1.92;;;1.10;;
77722;SDS011;67811;42.656;23.394;2023-03-18T03:12:42;3.63;;;2.58;;
77722;SDS011;67811;42.656;23.394;2023-03-18T03:15:13;2.17;;;1.52;;
77722;SDS011;67811;42.656;23.394;2023-03-18T03:17:43;1.73;;;1.63;;
77722;SDS011;67811;42.656;23.394;2023-03-18T03:20:14;7.35;;;3.08;;
77722;SDS011;67811;42.656;23.394;2023-03-18T03:22:45;3.42;;;3.05;;
77722;SDS011;67811;42.656;23.394;2023-03-18T03:25:16;2.10;;;2.00;;
77722;SDS011;67811;42.656;23.394;2023-03-18T03:27:48;1.60;;;1.13;;
77722;SDS011;67811;42.656;23.394;2023-03-18T03:30:19;2.70;;;2.35;;
77722;SDS011;67811;42.656;23.394;2023-03-18T03:32:50;2.45;;;1.70;;
77722;SDS011;67811;42.656;23.394;2023-03-18T03:35:21;1.58;;;1.40;;
77722;SDS011;67811;42.656;23.394;2023-03-18T03:37:52;6.05;;;2.65;;
77722;SDS011;67811;42.656;23.394;2023-03-18T03:40:23;5.50;;;3.15;;
77722;SDS011;67811;42.656;23.394;2023-03-18T03:42:55;0.52;;;0.52;;
77722;SDS011;67811;42.656;23.394;2023-03-18T03:45:26;0.88;;;0.88;;
77722;SDS011;67811;42.656;23.394;2023-03-18T03:47:56;1.08;;;1.08;;
77722;SDS011;67811;42.656;23.394;2023-03-18T03:50:27;1.83;;;1.55;;
77722;SDS011;67811;42.656;23.394;2023-03-18T03:52:57;0.32;;;0.32;;
77722;SDS011;67811;42.656;23.394;2023-03-18T03:55:28;2.03;;;1.92;;
77722;SDS011;67811;42.656;23.394;2023-03-18T03:58:00;1.05;;;1.00;;
77722;SDS011;67811;42.656;23.394;2023-03-18T04:00:31;1.13;;;1.00;;
77722;SDS011;67811;42.656;23.394;2023-03-18T04:03:02;2.97;;;1.45;;
77722;SDS011;67811;42.656;23.394;2023-03-18T04:05:32;1.88;;;1.52;;
77722;SDS011;67811;42.656;23.394;2023-03-18T04:08:03;2.58;;;1.65;;
77722;SDS011;67811;42.656;23.394;2023-03-18T04:10:34;4.30;;;1.45;;
77722;SDS011;67811;42.656;23.394;2023-03-18T04:13:06;2.35;;;2.25;;
77722;SDS011;67811;42.656;23.394;2023-03-18T04:15:36;1.05;;;0.93;;
77722;SDS011;67811;42.656;23.394;2023-03-18T04:18:07;2.08;;;2.00;;
77722;SDS011;67811;42.656;23.394;2023-03-18T04:20:38;1.90;;;0.68;;
77722;SDS011;67811;42.656;23.394;2023-03-18T04:23:08;1.23;;;1.13;;
77722;SDS011;67811;42.656;23.394;2023-03-18T04:25:39;2.05;;;1.63;;
77722;SDS011;67811;42.656;23.394;2023-03-18T04:28:11;0.95;;;0.95;;
77722;SDS011;67811;42.656;23.394;2023-03-18T04:30:42;3.90;;;3.28;;
77722;SDS011;67811;42.656;23.394;2023-03-18T04:33:12;1.02;;;1.02;;
77722;SDS011;67811;42.656;23.394;2023-03-18T04:35:43;1.52;;;1.42;;
77722;SDS011;67811;42.656;23.394;2023-03-18T04:38:14;1.48;;;1.38;;
77722;SDS011;67811;42.656;23.394;2023-03-18T04:40:44;1.75;;;1.65;;
77722;SDS011;67811;42.656;23.394;2023-03-18T04:43:17;1.30;;;1.30;;
77722;SDS011;67811;42.656;23.394;2023-03-18T04:45:48;1.08;;;1.05;;
77722;SDS011;67811;42.656;23.394;2023-03-18T04:48:19;1.45;;;1.35;;
77722;SDS011;67811;42.656;23.394;2023-03-18T04:50:49;1.52;;;1.45;;
77722;SDS011;67811;42.656;23.394;2023-03-18T04:53:20;1.85;;;1.75;;
77722;SDS011;67811;42.656;23.394;2023-03-18T04:55:50;1.70;;;1.35;;
77722;SDS011;67811;42.656;23.394;2023-03-18T04:58:22;1.02;;;0.98;;
77722;SDS011;67811;42.656;23.394;2023-03-18T05:00:53;0.77;;;0.77;;
77722;SDS011;67811;42.656;23.394;2023-03-18T05:03:24;1.17;;;1.08;;
77722;SDS011;67811;42.656;23.394;2023-03-18T05:05:54;3.30;;;1.20;;
77722;SDS011;67811;42.656;23.394;2023-03-18T05:08:25;5.43;;;1.35;;
77722;SDS011;67811;42.656;23.394;2023-03-18T05:10:56;0.47;;;0.47;;
77722;SDS011;67811;42.656;23.394;2023-03-18T05:13:28;1.17;;;1.17;;
77722;SDS011;67811;42.656;23.394;2023-03-18T05:15:58;1.08;;;0.95;;
77722;SDS011;67811;42.656;23.394;2023-03-18T05:18:29;1.92;;;1.83;;
77722;SDS011;67811;42.656;23.394;2023-03-18T05:20:59;0.55;;;0.50;;
77722;SDS011;67811;42.656;23.394;2023-03-18T05:23:30;0.70;;;0.70;;
77722;SDS011;67811;42.656;23.394;2023-03-18T05:26:01;1.88;;;1.77;;
77722;SDS011;67811;42.656;23.394;2023-03-18T05:28:33;1.40;;;1.30;;
77722;SDS011;67811;42.656;23.394;2023-03-18T05:31:04;1.20;;;1.10;;
77722;SDS011;67811;42.656;23.394;2023-03-18T05:33:35;3.75;;;3.45;;
77722;SDS011;67811;42.656;23.394;2023-03-18T05:36:06;0.57;;;0.57;;
77722;SDS011;67811;42.656;23.394;2023-03-18T05:38:37;2.22;;;2.05;;
77722;SDS011;67811;42.656;23.394;2023-03-18T05:41:07;1.27;;;1.25;;
77722;SDS011;67811;42.656;23.394;2023-03-18T05:43:39;1.42;;;1.35;;
77722;SDS011;67811;42.656;23.394;2023-03-18T05:46:10;1.50;;;1.50;;
77722;SDS011;67811;42.656;23.394;2023-03-18T05:48:41;1.13;;;0.98;;
77722;SDS011;67811;42.656;23.394;2023-03-18T05:51:12;2.00;;;1.83;;
77722;SDS011;67811;42.656;23.394;2023-03-18T05:53:42;1.98;;;1.88;;
77722;SDS011;67811;42.656;23.394;2023-03-18T05:56:13;2.03;;;1.77;;
77722;SDS011;67811;42.656;23.394;2023-03-18T05:58:45;1.42;;;1.25;;
77722;SDS011;67811;42.656;23.394;2023-03-18T06:01:16;2.63;;;2.08;;
77722;SDS011;67811;42.656;23.394;2023-03-18T06:03:47;1.13;;;1.08;;
77722;SDS011;67811;42.656;23.394;2023-03-18T06:06:17;2.17;;;1.70;;
77722;SDS011;67811;42.656;23.394;2023-03-18T06:08:48;1.92;;;1.80;;
77722;SDS011;67811;42.656;23.394;2023-03-18T06:11:19;2.90;;;2.70;;
77722;SDS011;67811;42.656;23.394;2023-03-18T06:13:51;3.22;;;2.97;;
77722;SDS011;67811;42.656;23.394;2023-03-18T06:16:21;2.92;;;2.10;;
77722;SDS011;67811;42.656;23.394;2023-03-18T06:18:52;5.13;;;4.63;;
77722;SDS011;67811;42.656;23.394;2023-03-18T06:21:23;9.88;;;3.85;;
77722;SDS011;67811;42.656;23.394;2023-03-18T06:23:54;5.40;;;4.00;;
77722;SDS011;67811;42.656;23.394;2023-03-18T06:26:25;4.60;;;2.50;;
77722;SDS011;67811;42.656;23.394;2023-03-18T06:28:57;4.90;;;3.72;;
77722;SDS011;67811;42.656;23.394;2023-03-18T06:31:28;5.93;;;3.63;;
77722;SDS011;67811;42.656;23.394;2023-03-18T06:33:58;6.00;;;4.85;;
77722;SDS011;67811;42.656;23.394;2023-03-18T06:36:29;5.03;;;4.05;;
77722;SDS011;67811;42.656;23.394;2023-03-18T06:39:00;4.93;;;3.83;;
77722;SDS011;67811;42.656;23.394;2023-03-18T06:41:31;5.25;;;4.15;;
77722;SDS011;67811;42.656;23.394;2023-03-18T06:44:03;7.30;;;5.03;;
77722;SDS011;67811;42.656;23.394;2023-03-18T06:46:34;6.80;;;4.88;;
77722;SDS011;67811;42.656;23.394;2023-03-18T06:49:04;9.88;;;5.55;;
77722;SDS011;67811;42.656;23.394;2023-03-18T06:51:35;7.93;;;5.22;;
77722;SDS011;67811;42.656;23.394;2023-03-18T06:54:06;8.68;;;6.10;;
77722;SDS011;67811;42.656;23.394;2023-03-18T06:56:37;6.68;;;4.93;;
77722;SDS011;67811;42.656;23.394;2023-03-18T06:59:09;9.55;;;6.05;;
77722;SDS011;67811;42.656;23.394;2023-03-18T07:01:40;9.70;;;6.13;;
77722;SDS011;67811;42.656;23.394;2023-03-18T07:04:10;10.65;;;6.53;;
77722;SDS011;67811;42.656;23.394;2023-03-18T07:06:41;8.88;;;6.30;;
77722;SDS011;67811;42.656;23.394;2023-03-18T07:09:11;11.55;;;6.20;;
77722;SDS011;67811;42.656;23.394;2023-03-18T07:11:42;11.00;;;6.00;;
77722;SDS011;67811;42.656;23.394;2023-03-18T07:14:14;9.50;;;6.40;;
77722;SDS011;67811;42.656;23.394;2023-03-18T07:16:45;13.75;;;6.35;;
77722;SDS011;67811;42.656;23.394;2023-03-18T07:19:15;12.93;;;6.07;;
77722;SDS011;67811;42.656;23.394;2023-03-18T07:21:46;11.52;;;6.45;;
77722;SDS011;67811;42.656;23.394;2023-03-18T07:24:17;11.25;;;7.10;;
77722;SDS011;67811;42.656;23.394;2023-03-18T07:26:47;13.88;;;7.05;;
77722;SDS011;67811;42.656;23.394;2023-03-18T07:29:20;12.85;;;7.45;;
77722;SDS011;67811;42.656;23.394;2023-03-18T07:31:50;12.05;;;7.45;;
77722;SDS011;67811;42.656;23.394;2023-03-18T07:34:21;12.60;;;7.85;;
77722;SDS011;67811;42.656;23.394;2023-03-18T07:36:51;13.85;;;7.25;;
77722;SDS011;67811;42.656;23.394;2023-03-18T07:39:22;10.98;;;7.63;;
77722;SDS011;67811;42.656;23.394;2023-03-18T07:41:53;13.85;;;8.65;;
77722;SDS011;67811;42.656;23.394;2023-03-18T07:44:25;11.55;;;8.07;;
77722;SDS011;67811;42.656;23.394;2023-03-18T07:46:56;14.10;;;9.05;;
77722;SDS011;67811;42.656;23.394;2023-03-18T07:49:27;11.50;;;7.30;;
77722;SDS011;67811;42.656;23.394;2023-03-18T07:51:57;14.38;;;8.88;;
77722;SDS011;67811;42.656;23.394;2023-03-18T07:54:28;14.48;;;8.35;;
77722;SDS011;67811;42.656;23.394;2023-03-18T07:56:58;13.35;;;8.90;;
77722;SDS011;67811;42.656;23.394;2023-03-18T07:59:30;12.75;;;7.38;;
77722;SDS011;67811;42.656;23.394;2023-03-18T08:02:01;12.90;;;9.15;;
77722;SDS011;67811;42.656;23.394;2023-03-18T08:04:32;13.93;;;7.93;;
77722;SDS011;67811;42.656;23.394;2023-03-18T08:07:02;11.70;;;8.07;;
77722;SDS011;67811;42.656;23.394;2023-03-18T08:09:33;15.13;;;8.38;;
77722;SDS011;67811;42.656;23.394;2023-03-18T08:12:04;11.90;;;8.50;;
77722;SDS011;67811;42.656;23.394;2023-03-18T08:14:36;13.15;;;8.60;;
77722;SDS011;67811;42.656;23.394;2023-03-18T08:17:07;15.40;;;9.07;;
77722;SDS011;67811;42.656;23.394;2023-03-18T08:19:38;14.48;;;8.55;;
77722;SDS011;67811;42.656;23.394;2023-03-18T08:22:08;13.00;;;8.13;;
77722;SDS011;67811;42.656;23.394;2023-03-18T08:24:39;11.23;;;7.57;;
77722;SDS011;67811;42.656;23.394;2023-03-18T08:27:09;10.43;;;7.55;;
77722;SDS011;67811;42.656;23.394;2023-03-18T08:29:41;9.43;;;6.72;;
77722;SDS011;67811;42.656;23.394;2023-03-18T08:32:12;9.60;;;7.45;;
77722;SDS011;67811;42.656;23.394;2023-03-18T08:34:43;9.95;;;6.45;;
77722;SDS011;67811;42.656;23.394;2023-03-18T08:37:13;9.40;;;6.32;;
77722;SDS011;67811;42.656;23.394;2023-03-18T08:39:44;10.40;;;6.60;;
77722;SDS011;67811;42.656;23.394;2023-03-18T08:42:15;9.93;;;6.82;;
77722;SDS011;67811;42.656;23.394;2023-03-18T08:44:47;7.93;;;6.25;;
77722;SDS011;67811;42.656;23.394;2023-03-18T08:47:18;10.43;;;7.70;;
77722;SDS011;67811;42.656;23.394;2023-03-18T08:49:49;10.32;;;5.80;;
77722;SDS011;67811;42.656;23.394;2023-03-18T08:52:19;10.52;;;6.68;;
77722;SDS011;67811;42.656;23.394;2023-03-18T08:54:50;8.63;;;5.07;;
77722;SDS011;67811;42.656;23.394;2023-03-18T08:57:21;9.10;;;6.15;;
77722;SDS011;67811;42.656;23.394;2023-03-18T08:59:53;8.88;;;5.18;;
77722;SDS011;67811;42.656;23.394;2023-03-18T09:02:23;8.15;;;5.18;;
77722;SDS011;67811;42.656;23.394;2023-03-18T09:04:54;8.20;;;5.70;;
77722;SDS011;67811;42.656;23.394;2023-03-18T09:07:24;8.52;;;6.00;;
77722;SDS011;67811;42.656;23.394;2023-03-18T09:09:55;7.53;;;5.30;;
77722;SDS011;67811;42.656;23.394;2023-03-18T09:12:25;9.48;;;5.68;;
77722;SDS011;67811;42.656;23.394;2023-03-18T09:14:57;8.35;;;5.72;;
77722;SDS011;67811;42.656;23.394;2023-03-18T09:17:28;8.32;;;5.55;;
77722;SDS011;67811;42.656;23.394;2023-03-18T09:19:58;8.90;;;5.55;;
77722;SDS011;67811;42.656;23.394;2023-03-18T09:22:29;8.32;;;4.97;;
77722;SDS011;67811;42.656;23.394;2023-03-18T09:25:00;8.52;;;5.32;;
77722;SDS011;67811;42.656;23.394;2023-03-18T09:27:30;6.22;;;4.57;;
77722;SDS011;67811;42.656;23.394;2023-03-18T09:30:02;5.88;;;3.28;;
77722;SDS011;67811;42.656;23.394;2023-03-18T09:32:34;5.75;;;3.50;;
77722;SDS011;67811;42.656;23.394;2023-03-18T09:35:05;5.35;;;2.45;;
77722;SDS011;67811;42.656;23.394;2023-03-18T09:37:36;4.63;;;2.60;;
77722;SDS011;67811;42.656;23.394;2023-03-18T09:40:07;4.35;;;2.60;;
77722;SDS011;67811;42.656;23.394;2023-03-18T09:42:48;3.20;;;2.25;;
77722;SDS011;67811;42.656;23.394;2023-03-18T09:45:28;5.63;;;2.97;;
77722;SDS011;67811;42.656;23.394;2023-03-18T09:48:10;3.67;;;2.60;;
77722;SDS011;67811;42.656;23.394;2023-03-18T09:50:58;3.78;;;2.45;;
77722;SDS011;67811;42.656;23.394;2023-03-18T09:53:39;4.70;;;2.85;;
77722;SDS011;67811;42.656;23.394;2023-03-18T09:56:16;4.35;;;2.83;;
77722;SDS011;67811;42.656;23.394;2023-03-18T09:58:50;5.72;;;3.00;;
77722;SDS011;67811;42.656;23.394;2023-03-18T10:01:26;3.65;;;2.45;;
77722;SDS011;67811;42.656;23.394;2023-03-18T10:04:00;4.57;;;2.30;;
77722;SDS011;67811;42.656;23.394;2023-03-18T10:06:34;5.72;;;2.83;;
77722;SDS011;67811;42.656;23.394;2023-03-18T10:09:07;4.63;;;3.08;;
77722;SDS011;67811;42.656;23.394;2023-03-18T10:11:44;3.08;;;2.25;;
77722;SDS011;67811;42.656;23.394;2023-03-18T10:14:18;3.38;;;2.00;;
77722;SDS011;67811;42.656;23.394;2023-03-18T10:17:07;3.20;;;2.15;;
77722;SDS011;67811;42.656;23.394;2023-03-18T10:19:46;2.00;;;1.35;;
77722;SDS011;67811;42.656;23.394;2023-03-18T10:25:27;2.60;;;1.48;;
77722;SDS011;67811;42.656;23.394;2023-03-18T10:28:27;2.97;;;2.03;;
77722;SDS011;67811;42.656;23.394;2023-03-18T10:31:17;1.90;;;1.45;;
77722;SDS011;67811;42.656;23.394;2023-03-18T10:33:58;2.10;;;1.10;;
77722;SDS011;67811;42.656;23.394;2023-03-18T10:36:33;2.15;;;1.50;;
77722;SDS011;67811;42.656;23.394;2023-03-18T10:39:10;5.53;;;1.77;;
77722;SDS011;67811;42.656;23.394;2023-03-18T10:41:46;2.10;;;1.48;;
77722;SDS011;67811;42.656;23.394;2023-03-18T10:44:19;2.80;;;1.75;;
77722;SDS011;67811;42.656;23.394;2023-03-18T10:46:55;2.65;;;1.52;;
77722;SDS011;67811;42.656;23.394;2023-03-18T10:49:29;2.28;;;1.77;;
77722;SDS011;67811;42.656;23.394;2023-03-18T10:52:06;3.28;;;1.60;;
77722;SDS011;67811;42.656;23.394;2023-03-18T10:54:43;2.03;;;1.45;;
77722;SDS011;67811;42.656;23.394;2023-03-18T10:57:15;2.58;;;2.35;;
77722;SDS011;67811;42.656;23.394;2023-03-18T10:59:46;2.55;;;1.40;;
77722;SDS011;67811;42.656;23.394;2023-03-18T11:02:19;1.80;;;0.98;;
77722;SDS011;67811;42.656;23.394;2023-03-18T11:04:57;1.90;;;1.70;;
77722;SDS011;67811;42.656;23.394;2023-03-18T11:07:31;1.83;;;1.20;;
77722;SDS011;67811;42.656;23.394;2023-03-18T11:10:09;1.35;;;1.20;;
77722;SDS011;67811;42.656;23.394;2023-03-18T11:12:45;3.05;;;1.58;;
77722;SDS011;67811;42.656;23.394;2023-03-18T11:15:18;1.42;;;1.02;;
77722;SDS011;67811;42.656;23.394;2023-03-18T11:17:49;5.35;;;1.70;;
77722;SDS011;67811;42.656;23.394;2023-03-18T11:20:22;3.67;;;1.92;;
77722;SDS011;67811;42.656;23.394;2023-03-18T11:23:02;1.63;;;1.10;;
77722;SDS011;67811;42.656;23.394;2023-03-18T11:25:34;2.63;;;1.80;;
77722;SDS011;67811;42.656;23.394;2023-03-18T11:28:10;1.20;;;0.77;;
77722;SDS011;67811;42.656;23.394;2023-03-18T11:30:49;1.77;;;1.58;;
77722;SDS011;67811;42.656;23.394;2023-03-18T11:33:22;2.08;;;1.65;;
77722;SDS011;67811;42.656;23.394;2023-03-18T11:35:56;2.03;;;1.30;;
77722;SDS011;67811;42.656;23.394;2023-03-18T11:38:28;2.17;;;1.65;;
77722;SDS011;67811;42.656;23.394;2023-03-18T11:41:07;2.00;;;1.80;;
77722;SDS011;67811;42.656;23.394;2023-03-18T11:43:53;2.33;;;1.67;;
77722;SDS011;67811;42.656;23.394;2023-03-18T11:46:25;2.53;;;1.85;;
77722;SDS011;67811;42.656;23.394;2023-03-18T11:48:58;1.90;;;1.33;;
77722;SDS011;67811;42.656;23.394;2023-03-18T11:51:37;2.83;;;1.73;;
77722;SDS011;67811;42.656;23.394;2023-03-18T11:54:13;1.83;;;1.67;;
77722;SDS011;67811;42.656;23.394;2023-03-18T11:56:59;2.10;;;1.40;;
77722;SDS011;67811;42.656;23.394;2023-03-18T11:59:40;1.70;;;1.60;;
77722;SDS011;67811;42.656;23.394;2023-03-18T12:02:29;1.77;;;1.52;;
77722;SDS011;67811;42.656;23.394;2023-03-18T12:05:29;2.00;;;1.52;;
77722;SDS011;67811;42.656;23.394;2023-03-18T12:08:20;1.67;;;1.38;;
77722;SDS011;67811;42.656;23.394;2023-03-18T12:11:03;1.90;;;1.67;;
77722;SDS011;67811;42.656;23.394;2023-03-18T12:13:44;1.35;;;0.95;;
77722;SDS011;67811;42.656;23.394;2023-03-18T12:16:25;1.23;;;1.00;;
77722;SDS011;67811;42.656;23.394;2023-03-18T12:19:14;4.43;;;2.45;;
77722;SDS011;67811;42.656;23.394;2023-03-18T12:28:09;2.00;;;1.73;;
77722;SDS011;67811;42.656;23.394;2023-03-18T12:30:58;10.95;;;4.57;;
77722;SDS011;67811;42.656;23.394;2023-03-18T12:33:46;2.33;;;1.48;;
77722;SDS011;67811;42.656;23.394;2023-03-18T12:36:25;2.80;;;1.58;;
77722;SDS011;67811;42.656;23.394;2023-03-18T12:42:25;1.88;;;1.73;;
77722;SDS011;67811;42.656;23.394;2023-03-18T12:45:10;1.50;;;1.30;;
77722;SDS011;67811;42.656;23.394;2023-03-18T12:47:45;1.35;;;1.17;;
77722;SDS011;67811;42.656;23.394;2023-03-18T12:50:19;2.80;;;1.65;;
77722;SDS011;67811;42.656;23.394;2023-03-18T12:52:54;2.72;;;2.13;;
77722;SDS011;67811;42.656;23.394;2023-03-18T12:55:30;3.05;;;1.60;;
77722;SDS011;67811;42.656;23.394;2023-03-18T12:58:06;3.08;;;2.10;;
77722;SDS011;67811;42.656;23.394;2023-03-18T13:00:42;2.65;;;2.35;;
77722;SDS011;67811;42.656;23.394;2023-03-18T13:03:21;3.75;;;2.05;;
77722;SDS011;67811;42.656;23.394;2023-03-18T13:05:57;2.97;;;1.50;;
77722;SDS011;67811;42.656;23.394;2023-03-18T13:08:42;2.17;;;1.15;;
77722;SDS011;67811;42.656;23.394;2023-03-18T13:14:25;2.08;;;1.58;;
77722;SDS011;67811;42.656;23.394;2023-03-18T13:17:00;2.17;;;1.48;;
77722;SDS011;67811;42.656;23.394;2023-03-18T13:19:32;1.20;;;1.10;;
77722;SDS011;67811;42.656;23.394;2023-03-18T13:22:06;3.53;;;1.55;;
77722;SDS011;67811;42.656;23.394;2023-03-18T13:24:54;1.30;;;1.02;;
77722;SDS011;67811;42.656;23.394;2023-03-18T13:27:40;2.45;;;1.55;;
77722;SDS011;67811;42.656;23.394;2023-03-18T13:30:29;1.95;;;1.13;;
77722;SDS011;67811;42.656;23.394;2023-03-18T13:36:10;0.93;;;0.90;;
77722;SDS011;67811;42.656;23.394;2023-03-18T13:45:01;4.55;;;1.77;;
77722;SDS011;67811;42.656;23.394;2023-03-18T13:47:37;2.05;;;1.58;;
77722;SDS011;67811;42.656;23.394;2023-03-18T13:50:21;1.30;;;0.95;;
77722;SDS011;67811;42.656;23.394;2023-03-18T13:52:59;1.67;;;1.58;;
77722;SDS011;67811;42.656;23.394;2023-03-18T13:55:32;1.35;;;1.27;;
77722;SDS011;67811;42.656;23.394;2023-03-18T13:58:08;1.63;;;0.95;;
77722;SDS011;67811;42.656;23.394;2023-03-18T14:04:00;4.10;;;2.38;;
77722;SDS011;67811;42.656;23.394;2023-03-18T14:06:55;1.35;;;1.05;;
77722;SDS011;67811;42.656;23.394;2023-03-18T14:09:50;1.75;;;1.00;;
77722;SDS011;67811;42.656;23.394;2023-03-18T14:12:37;1.73;;;1.20;;
77722;SDS011;67811;42.656;23.394;2023-03-18T14:17:59;1.30;;;1.00;;
77722;SDS011;67811;42.656;23.394;2023-03-18T14:20:37;2.00;;;1.00;;
77722;SDS011;67811;42.656;23.394;2023-03-18T14:26:06;1.23;;;0.82;;
77722;SDS011;67811;42.656;23.394;2023-03-18T14:28:47;2.40;;;1.70;;
77722;SDS011;67811;42.656;23.394;2023-03-18T14:31:29;1.85;;;1.63;;
77722;SDS011;67811;42.656;23.394;2023-03-18T14:37:12;4.68;;;1.63;;
77722;SDS011;67811;42.656;23.394;2023-03-18T14:39:48;0.43;;;0.43;;
77722;SDS011;67811;42.656;23.394;2023-03-18T14:42:26;1.65;;;1.35;;
77722;SDS011;67811;42.656;23.394;2023-03-18T14:45:01;2.08;;;1.60;;
77722;SDS011;67811;42.656;23.394;2023-03-18T14:47:39;3.00;;;1.05;;
77722;SDS011;67811;42.656;23.394;2023-03-18T14:50:14;3.33;;;1.77;;
77722;SDS011;67811;42.656;23.394;2023-03-18T14:52:51;1.55;;;1.45;;
77722;SDS011;67811;42.656;23.394;2023-03-18T14:55:26;1.70;;;1.60;;
77722;SDS011;67811;42.656;23.394;2023-03-18T14:58:01;1.95;;;1.13;;
77722;SDS011;67811;42.656;23.394;2023-03-18T15:00:33;1.65;;;1.55;;
77722;SDS011;67811;42.656;23.394;2023-03-18T15:03:06;1.17;;;1.08;;
77722;SDS011;67811;42.656;23.394;2023-03-18T15:05:43;1.13;;;0.90;;
77722;SDS011;67811;42.656;23.394;2023-03-18T15:08:17;1.13;;;0.80;;
77722;SDS011;67811;42.656;23.394;2023-03-18T15:10:50;3.40;;;1.67;;
77722;SDS011;67811;42.656;23.394;2023-03-18T15:13:22;3.72;;;1.77;;
77722;SDS011;67811;42.656;23.394;2023-03-18T15:15:55;1.95;;;1.33;;
77722;SDS011;67811;42.656;23.394;2023-03-18T15:18:27;1.40;;;1.25;;
77722;SDS011;67811;42.656;23.394;2023-03-18T15:20:59;0.40;;;0.40;;
77722;SDS011;67811;42.656;23.394;2023-03-18T15:23:38;2.33;;;1.92;;
77722;SDS011;67811;42.656;23.394;2023-03-18T15:26:14;1.70;;;1.60;;
77722;SDS011;67811;42.656;23.394;2023-03-18T15:28:51;3.95;;;1.00;;
77722;SDS011;67811;42.656;23.394;2023-03-18T15:31:23;1.42;;;1.33;;
77722;SDS011;67811;42.656;23.394;2023-03-18T15:34:02;1.58;;;0.93;;
77722;SDS011;67811;42.656;23.394;2023-03-18T15:36:38;3.25;;;2.00;;
77722;SDS011;67811;42.656;23.394;2023-03-18T15:39:19;1.42;;;1.42;;
77722;SDS011;67811;42.656;23.394;2023-03-18T15:41:51;1.92;;;1.10;;
77722;SDS011;67811;42.656;23.394;2023-03-18T15:44:23;2.08;;;1.13;;
77722;SDS011;67811;42.656;23.394;2023-03-18T15:47:02;1.10;;;0.88;;
77722;SDS011;67811;42.656;23.394;2023-03-18T15:49:41;1.13;;;1.02;;